sensor_id;sensor_type;location;lat;lon;timestamp;P1;durP1;ratioP1;P2;durP2;ratioP2
19312;SDS011;9791;50.820;4.406;2023-03-02T00:04:08;17.77;;;9.87;;
19312;SDS011;9791;50.820;4.406;2023-03-02T00:06:36;20.30;;;10.83;;
19312;SDS011;9791;50.820;4.406;2023-03-02T00:09:02;18.53;;;10.20;;
19312;SDS011;9791;50.820;4.406;2023-03-02T00:11:30;17.90;;;10.33;;
19312;SDS011;9791;50.820;4.406;2023-03-02T00:13:56;17.40;;;10.43;;
19312;SDS011;9791;50.820;4.406;2023-03-02T00:16:25;16.97;;;9.27;;
19312;SDS011;9791;50.820;4.406;2023-03-02T00:18:51;17.87;;;9.17;;
19312;SDS011;9791;50.820;4.406;2023-03-02T00:21:17;18.83;;;9.53;;
19312;SDS011;9791;50.820;4.406;2023-03-02T00:23:43;16.70;;;9.57;;
19312;SDS011;9791;50.820;4.406;2023-03-02T00:26:10;17.07;;;9.87;;
19312;SDS011;9791;50.820;4.406;2023-03-02T00:28:36;16.53;;;9.93;;
19312;SDS011;9791;50.820;4.406;2023-03-02T00:31:08;17.03;;;9.53;;
19312;SDS011;9791;50.820;4.406;2023-03-02T00:33:34;16.40;;;9.60;;
19312;SDS011;9791;50.820;4.406;2023-03-02T00:36:00;17.30;;;9.50;;
19312;SDS011;9791;50.820;4.406;2023-03-02T00:38:26;18.43;;;9.50;;
19312;SDS011;9791;50.820;4.406;2023-03-02T00:40:52;17.27;;;9.43;;
19312;SDS011;9791;50.820;4.406;2023-03-02T00:43:19;15.90;;;9.23;;
19312;SDS011;9791;50.820;4.406;2023-03-02T00:45:51;20.00;;;10.10;;
19312;SDS011;9791;50.820;4.406;2023-03-02T00:48:17;16.47;;;9.63;;
19312;SDS011;9791;50.820;4.406;2023-03-02T00:50:43;18.43;;;10.03;;
19312;SDS011;9791;50.820;4.406;2023-03-02T00:53:09;15.10;;;9.60;;
19312;SDS011;9791;50.820;4.406;2023-03-02T00:55:36;16.90;;;9.50;;
19312;SDS011;9791;50.820;4.406;2023-03-02T00:58:02;17.83;;;10.27;;
19312;SDS011;9791;50.820;4.406;2023-03-02T01:00:29;17.73;;;9.60;;
19312;SDS011;9791;50.820;4.406;2023-03-02T01:02:55;19.77;;;10.57;;
19312;SDS011;9791;50.820;4.406;2023-03-02T01:05:21;20.20;;;9.90;;
19312;SDS011;9791;50.820;4.406;2023-03-02T01:07:47;17.57;;;8.57;;
19312;SDS011;9791;50.820;4.406;2023-03-02T01:10:13;22.67;;;9.47;;
19312;SDS011;9791;50.820;4.406;2023-03-02T01:12:40;16.83;;;9.27;;
19312;SDS011;9791;50.820;4.406;2023-03-02T01:15:07;19.07;;;9.57;;
19312;SDS011;9791;50.820;4.406;2023-03-02T01:17:33;16.50;;;9.80;;
19312;SDS011;9791;50.820;4.406;2023-03-02T01:19:59;18.50;;;9.87;;
19312;SDS011;9791;50.820;4.406;2023-03-02T01:22:25;15.67;;;8.57;;
19312;SDS011;9791;50.820;4.406;2023-03-02T01:24:51;14.37;;;9.10;;
19312;SDS011;9791;50.820;4.406;2023-03-02T01:27:18;15.33;;;9.40;;
19312;SDS011;9791;50.820;4.406;2023-03-02T01:29:44;14.47;;;9.00;;
19312;SDS011;9791;50.820;4.406;2023-03-02T01:32:10;14.87;;;8.70;;
19312;SDS011;9791;50.820;4.406;2023-03-02T01:34:36;18.80;;;8.97;;
19312;SDS011;9791;50.820;4.406;2023-03-02T01:37:02;14.23;;;7.90;;
19312;SDS011;9791;50.820;4.406;2023-03-02T01:39:30;17.67;;;9.13;;
19312;SDS011;9791;50.820;4.406;2023-03-02T01:41:56;14.80;;;9.27;;
19312;SDS011;9791;50.820;4.406;2023-03-02T01:44:42;14.23;;;8.60;;
19312;SDS011;9791;50.820;4.406;2023-03-02T01:47:10;16.17;;;8.67;;
19312;SDS011;9791;50.820;4.406;2023-03-02T01:49:38;16.13;;;8.40;;
19312;SDS011;9791;50.820;4.406;2023-03-02T01:52:06;16.33;;;9.13;;
19312;SDS011;9791;50.820;4.406;2023-03-02T01:54:34;14.17;;;8.50;;
19312;SDS011;9791;50.820;4.406;2023-03-02T01:57:01;17.57;;;9.03;;
19312;SDS011;9791;50.820;4.406;2023-03-02T01:59:28;15.87;;;8.73;;
19312;SDS011;9791;50.820;4.406;2023-03-02T02:01:55;17.00;;;7.97;;
19312;SDS011;9791;50.820;4.406;2023-03-02T02:04:23;14.83;;;8.63;;
19312;SDS011;9791;50.820;4.406;2023-03-02T02:06:53;16.87;;;9.60;;
19312;SDS011;9791;50.820;4.406;2023-03-02T02:09:20;16.03;;;8.40;;
19312;SDS011;9791;50.820;4.406;2023-03-02T02:11:47;12.90;;;8.57;;
19312;SDS011;9791;50.820;4.406;2023-03-02T02:14:13;16.60;;;8.67;;
19312;SDS011;9791;50.820;4.406;2023-03-02T02:16:40;14.70;;;7.83;;
19312;SDS011;9791;50.820;4.406;2023-03-02T02:19:11;14.30;;;9.00;;
19312;SDS011;9791;50.820;4.406;2023-03-02T02:21:39;15.80;;;8.13;;
19312;SDS011;9791;50.820;4.406;2023-03-02T02:24:09;18.83;;;8.90;;
19312;SDS011;9791;50.820;4.406;2023-03-02T02:29:04;12.47;;;8.27;;
19312;SDS011;9791;50.820;4.406;2023-03-02T02:34:03;20.53;;;9.20;;
19312;SDS011;9791;50.820;4.406;2023-03-02T02:36:31;15.10;;;8.17;;
19312;SDS011;9791;50.820;4.406;2023-03-02T02:39:00;12.70;;;8.30;;
19312;SDS011;9791;50.820;4.406;2023-03-02T02:41:28;14.37;;;8.63;;
19312;SDS011;9791;50.820;4.406;2023-03-02T02:43:56;14.50;;;8.43;;
19312;SDS011;9791;50.820;4.406;2023-03-02T02:46:22;15.23;;;8.20;;
19312;SDS011;9791;50.820;4.406;2023-03-02T02:48:49;15.10;;;8.60;;
19312;SDS011;9791;50.820;4.406;2023-03-02T02:51:17;13.90;;;8.33;;
19312;SDS011;9791;50.820;4.406;2023-03-02T02:53:49;13.73;;;8.00;;
19312;SDS011;9791;50.820;4.406;2023-03-02T02:56:22;19.57;;;8.47;;
19312;SDS011;9791;50.820;4.406;2023-03-02T02:58:50;14.77;;;8.27;;
19312;SDS011;9791;50.820;4.406;2023-03-02T03:01:18;15.03;;;8.20;;
19312;SDS011;9791;50.820;4.406;2023-03-02T03:03:50;13.00;;;8.07;;
19312;SDS011;9791;50.820;4.406;2023-03-02T03:06:17;14.03;;;7.73;;
19312;SDS011;9791;50.820;4.406;2023-03-02T03:11:18;15.80;;;7.43;;
19312;SDS011;9791;50.820;4.406;2023-03-02T03:13:50;15.77;;;7.80;;
19312;SDS011;9791;50.820;4.406;2023-03-02T03:16:18;15.40;;;8.80;;
19312;SDS011;9791;50.820;4.406;2023-03-02T03:18:44;15.40;;;8.73;;
19312;SDS011;9791;50.820;4.406;2023-03-02T03:21:11;14.33;;;8.03;;
19312;SDS011;9791;50.820;4.406;2023-03-02T03:23:37;15.30;;;8.20;;
19312;SDS011;9791;50.820;4.406;2023-03-02T03:26:04;14.53;;;8.33;;
19312;SDS011;9791;50.820;4.406;2023-03-02T03:28:30;13.50;;;8.17;;
19312;SDS011;9791;50.820;4.406;2023-03-02T03:30:57;14.07;;;7.87;;
19312;SDS011;9791;50.820;4.406;2023-03-02T03:33:23;15.00;;;8.00;;
19312;SDS011;9791;50.820;4.406;2023-03-02T03:35:49;15.57;;;9.40;;
19312;SDS011;9791;50.820;4.406;2023-03-02T03:38:15;16.20;;;8.40;;
19312;SDS011;9791;50.820;4.406;2023-03-02T03:40:42;14.50;;;8.77;;
19312;SDS011;9791;50.820;4.406;2023-03-02T03:43:08;13.53;;;8.60;;
19312;SDS011;9791;50.820;4.406;2023-03-02T03:45:34;13.50;;;8.30;;
19312;SDS011;9791;50.820;4.406;2023-03-02T03:48:00;14.83;;;8.03;;
19312;SDS011;9791;50.820;4.406;2023-03-02T03:50:26;11.63;;;7.60;;
19312;SDS011;9791;50.820;4.406;2023-03-02T03:52:52;15.70;;;8.17;;
19312;SDS011;9791;50.820;4.406;2023-03-02T03:55:18;16.03;;;8.27;;
19312;SDS011;9791;50.820;4.406;2023-03-02T03:57:44;16.13;;;7.97;;
19312;SDS011;9791;50.820;4.406;2023-03-02T04:00:13;14.27;;;8.13;;
19312;SDS011;9791;50.820;4.406;2023-03-02T04:02:41;11.77;;;7.60;;
19312;SDS011;9791;50.820;4.406;2023-03-02T04:05:08;15.10;;;8.20;;
19312;SDS011;9791;50.820;4.406;2023-03-02T04:07:35;14.43;;;7.90;;
19312;SDS011;9791;50.820;4.406;2023-03-02T04:10:01;13.37;;;7.57;;
19312;SDS011;9791;50.820;4.406;2023-03-02T04:12:28;12.77;;;7.17;;
19312;SDS011;9791;50.820;4.406;2023-03-02T04:14:54;12.80;;;8.10;;
19312;SDS011;9791;50.820;4.406;2023-03-02T04:17:21;12.80;;;7.80;;
19312;SDS011;9791;50.820;4.406;2023-03-02T04:19:47;12.50;;;8.13;;
19312;SDS011;9791;50.820;4.406;2023-03-02T04:22:13;12.87;;;7.90;;
19312;SDS011;9791;50.820;4.406;2023-03-02T04:24:40;14.27;;;6.97;;
19312;SDS011;9791;50.820;4.406;2023-03-02T04:27:06;14.30;;;8.13;;
19312;SDS011;9791;50.820;4.406;2023-03-02T04:29:32;12.73;;;8.00;;
19312;SDS011;9791;50.820;4.406;2023-03-02T04:31:58;14.87;;;8.07;;
19312;SDS011;9791;50.820;4.406;2023-03-02T04:34:24;16.47;;;8.10;;
19312;SDS011;9791;50.820;4.406;2023-03-02T04:36:51;13.37;;;7.70;;
19312;SDS011;9791;50.820;4.406;2023-03-02T04:39:17;12.97;;;7.70;;
19312;SDS011;9791;50.820;4.406;2023-03-02T04:41:44;13.10;;;7.33;;
19312;SDS011;9791;50.820;4.406;2023-03-02T04:44:10;13.00;;;7.37;;
19312;SDS011;9791;50.820;4.406;2023-03-02T04:46:36;13.83;;;7.50;;
19312;SDS011;9791;50.820;4.406;2023-03-02T04:49:03;12.33;;;7.43;;
19312;SDS011;9791;50.820;4.406;2023-03-02T04:51:30;15.70;;;8.17;;
19312;SDS011;9791;50.820;4.406;2023-03-02T04:53:58;12.90;;;7.67;;
19312;SDS011;9791;50.820;4.406;2023-03-02T04:56:24;11.20;;;6.90;;
19312;SDS011;9791;50.820;4.406;2023-03-02T04:58:50;12.63;;;7.67;;
19312;SDS011;9791;50.820;4.406;2023-03-02T05:01:17;13.07;;;7.63;;
19312;SDS011;9791;50.820;4.406;2023-03-02T05:03:43;15.03;;;8.20;;
19312;SDS011;9791;50.820;4.406;2023-03-02T05:06:10;14.77;;;7.73;;
19312;SDS011;9791;50.820;4.406;2023-03-02T05:08:36;12.93;;;7.17;;
19312;SDS011;9791;50.820;4.406;2023-03-02T05:11:02;13.70;;;8.83;;
19312;SDS011;9791;50.820;4.406;2023-03-02T05:13:28;12.87;;;7.70;;
19312;SDS011;9791;50.820;4.406;2023-03-02T05:15:55;16.60;;;8.80;;
19312;SDS011;9791;50.820;4.406;2023-03-02T05:18:22;14.20;;;7.83;;
19312;SDS011;9791;50.820;4.406;2023-03-02T05:20:49;14.80;;;7.57;;
19312;SDS011;9791;50.820;4.406;2023-03-02T05:23:15;14.47;;;7.87;;
19312;SDS011;9791;50.820;4.406;2023-03-02T05:25:47;12.87;;;7.37;;
19312;SDS011;9791;50.820;4.406;2023-03-02T05:28:14;13.97;;;8.20;;
19312;SDS011;9791;50.820;4.406;2023-03-02T05:30:40;13.90;;;7.93;;
19312;SDS011;9791;50.820;4.406;2023-03-02T05:33:06;12.77;;;7.43;;
19312;SDS011;9791;50.820;4.406;2023-03-02T05:35:32;12.13;;;7.37;;
19312;SDS011;9791;50.820;4.406;2023-03-02T05:37:58;13.43;;;7.37;;
19312;SDS011;9791;50.820;4.406;2023-03-02T05:40:24;11.87;;;7.13;;
19312;SDS011;9791;50.820;4.406;2023-03-02T05:42:50;15.50;;;7.00;;
19312;SDS011;9791;50.820;4.406;2023-03-02T05:45:21;13.17;;;7.57;;
19312;SDS011;9791;50.820;4.406;2023-03-02T05:47:48;12.70;;;7.33;;
19312;SDS011;9791;50.820;4.406;2023-03-02T05:50:16;14.37;;;7.50;;
19312;SDS011;9791;50.820;4.406;2023-03-02T05:52:42;11.53;;;6.97;;
19312;SDS011;9791;50.820;4.406;2023-03-02T05:55:09;11.83;;;6.87;;
19312;SDS011;9791;50.820;4.406;2023-03-02T05:57:36;11.70;;;7.63;;
19312;SDS011;9791;50.820;4.406;2023-03-02T06:00:02;19.97;;;7.63;;
19312;SDS011;9791;50.820;4.406;2023-03-02T06:02:30;12.77;;;7.63;;
19312;SDS011;9791;50.820;4.406;2023-03-02T06:04:56;11.77;;;7.23;;
19312;SDS011;9791;50.820;4.406;2023-03-02T06:07:22;12.00;;;7.43;;
19312;SDS011;9791;50.820;4.406;2023-03-02T06:09:48;14.23;;;7.90;;
19312;SDS011;9791;50.820;4.406;2023-03-02T06:12:15;12.90;;;7.00;;
19312;SDS011;9791;50.820;4.406;2023-03-02T06:14:42;12.23;;;7.47;;
19312;SDS011;9791;50.820;4.406;2023-03-02T06:17:08;13.10;;;7.77;;
19312;SDS011;9791;50.820;4.406;2023-03-02T06:19:34;14.90;;;8.13;;
19312;SDS011;9791;50.820;4.406;2023-03-02T06:22:00;12.27;;;7.37;;
19312;SDS011;9791;50.820;4.406;2023-03-02T06:24:27;13.13;;;7.20;;
19312;SDS011;9791;50.820;4.406;2023-03-02T06:26:53;15.13;;;7.53;;
19312;SDS011;9791;50.820;4.406;2023-03-02T06:29:19;14.93;;;7.77;;
19312;SDS011;9791;50.820;4.406;2023-03-02T06:31:46;12.93;;;6.73;;
19312;SDS011;9791;50.820;4.406;2023-03-02T06:34:12;11.80;;;7.30;;
19312;SDS011;9791;50.820;4.406;2023-03-02T06:36:38;12.00;;;7.10;;
19312;SDS011;9791;50.820;4.406;2023-03-02T06:39:05;12.27;;;7.70;;
19312;SDS011;9791;50.820;4.406;2023-03-02T06:41:31;15.70;;;8.57;;
19312;SDS011;9791;50.820;4.406;2023-03-02T06:43:58;13.93;;;7.67;;
19312;SDS011;9791;50.820;4.406;2023-03-02T06:46:24;12.63;;;7.47;;
19312;SDS011;9791;50.820;4.406;2023-03-02T06:48:50;14.37;;;7.47;;
19312;SDS011;9791;50.820;4.406;2023-03-02T06:51:16;14.00;;;7.17;;
19312;SDS011;9791;50.820;4.406;2023-03-02T06:53:43;13.37;;;7.43;;
19312;SDS011;9791;50.820;4.406;2023-03-02T06:56:09;10.03;;;6.90;;
19312;SDS011;9791;50.820;4.406;2023-03-02T06:58:35;11.47;;;7.70;;
19312;SDS011;9791;50.820;4.406;2023-03-02T07:01:01;15.63;;;8.13;;
19312;SDS011;9791;50.820;4.406;2023-03-02T07:03:28;18.80;;;7.77;;
19312;SDS011;9791;50.820;4.406;2023-03-02T07:05:54;11.53;;;7.30;;
19312;SDS011;9791;50.820;4.406;2023-03-02T07:08:20;12.83;;;8.07;;
19312;SDS011;9791;50.820;4.406;2023-03-02T07:10:46;14.97;;;7.20;;
19312;SDS011;9791;50.820;4.406;2023-03-02T07:13:13;12.73;;;7.87;;
19312;SDS011;9791;50.820;4.406;2023-03-02T07:15:39;14.53;;;7.90;;
19312;SDS011;9791;50.820;4.406;2023-03-02T07:18:05;11.87;;;7.37;;
19312;SDS011;9791;50.820;4.406;2023-03-02T07:20:31;13.60;;;6.97;;
19312;SDS011;9791;50.820;4.406;2023-03-02T07:22:58;12.90;;;6.80;;
19312;SDS011;9791;50.820;4.406;2023-03-02T07:25:24;11.57;;;6.53;;
19312;SDS011;9791;50.820;4.406;2023-03-02T07:27:51;11.70;;;6.72;;
19312;SDS011;9791;50.820;4.406;2023-03-02T07:30:17;12.35;;;6.25;;
19312;SDS011;9791;50.820;4.406;2023-03-02T07:32:45;12.63;;;6.63;;
19312;SDS011;9791;50.820;4.406;2023-03-02T07:35:11;15.85;;;6.65;;
19312;SDS011;9791;50.820;4.406;2023-03-02T07:37:37;13.05;;;6.70;;
19312;SDS011;9791;50.820;4.406;2023-03-02T07:40:04;12.65;;;6.90;;
19312;SDS011;9791;50.820;4.406;2023-03-02T07:42:30;16.05;;;6.22;;
19312;SDS011;9791;50.820;4.406;2023-03-02T07:44:57;12.15;;;7.00;;
19312;SDS011;9791;50.820;4.406;2023-03-02T07:47:23;13.73;;;6.72;;
19312;SDS011;9791;50.820;4.406;2023-03-02T07:49:49;10.18;;;6.05;;
19312;SDS011;9791;50.820;4.406;2023-03-02T07:52:15;10.80;;;6.05;;
19312;SDS011;9791;50.820;4.406;2023-03-02T07:54:41;10.98;;;6.20;;
19312;SDS011;9791;50.820;4.406;2023-03-02T07:57:07;11.32;;;6.45;;
19312;SDS011;9791;50.820;4.406;2023-03-02T07:59:33;10.77;;;6.25;;
19312;SDS011;9791;50.820;4.406;2023-03-02T08:01:59;10.57;;;6.00;;
19312;SDS011;9791;50.820;4.406;2023-03-02T08:04:25;10.18;;;6.53;;
19312;SDS011;9791;50.820;4.406;2023-03-02T08:06:51;10.02;;;6.28;;
19312;SDS011;9791;50.820;4.406;2023-03-02T08:09:17;10.23;;;6.57;;
19312;SDS011;9791;50.820;4.406;2023-03-02T08:11:43;10.50;;;6.88;;
19312;SDS011;9791;50.820;4.406;2023-03-02T08:14:11;10.25;;;6.43;;
19312;SDS011;9791;50.820;4.406;2023-03-02T08:16:38;13.77;;;6.95;;
19312;SDS011;9791;50.820;4.406;2023-03-02T08:19:04;13.10;;;7.13;;
19312;SDS011;9791;50.820;4.406;2023-03-02T08:21:30;10.43;;;6.32;;
19312;SDS011;9791;50.820;4.406;2023-03-02T08:23:57;11.30;;;6.45;;
19312;SDS011;9791;50.820;4.406;2023-03-02T08:26:26;14.70;;;6.90;;
19312;SDS011;9791;50.820;4.406;2023-03-02T08:28:52;12.25;;;6.32;;
19312;SDS011;9791;50.820;4.406;2023-03-02T08:31:18;8.85;;;6.25;;
19312;SDS011;9791;50.820;4.406;2023-03-02T08:33:44;11.02;;;5.47;;
19312;SDS011;9791;50.820;4.406;2023-03-02T08:36:17;12.00;;;5.88;;
19312;SDS011;9791;50.820;4.406;2023-03-02T08:38:44;13.60;;;7.25;;
19312;SDS011;9791;50.820;4.406;2023-03-02T08:41:11;9.85;;;6.40;;
19312;SDS011;9791;50.820;4.406;2023-03-02T08:43:38;10.38;;;6.65;;
19312;SDS011;9791;50.820;4.406;2023-03-02T08:46:04;11.02;;;7.25;;
19312;SDS011;9791;50.820;4.406;2023-03-02T08:48:30;9.38;;;6.55;;
19312;SDS011;9791;50.820;4.406;2023-03-02T08:51:00;11.38;;;6.22;;
19312;SDS011;9791;50.820;4.406;2023-03-02T08:53:28;11.25;;;5.88;;
19312;SDS011;9791;50.820;4.406;2023-03-02T08:55:54;11.18;;;6.55;;
19312;SDS011;9791;50.820;4.406;2023-03-02T08:58:20;13.40;;;6.40;;
19312;SDS011;9791;50.820;4.406;2023-03-02T09:00:47;9.68;;;6.30;;
19312;SDS011;9791;50.820;4.406;2023-03-02T09:03:13;9.05;;;6.53;;
19312;SDS011;9791;50.820;4.406;2023-03-02T09:05:39;14.93;;;6.25;;
19312;SDS011;9791;50.820;4.406;2023-03-02T09:08:06;10.35;;;6.68;;
19312;SDS011;9791;50.820;4.406;2023-03-02T09:10:32;10.57;;;7.00;;
19312;SDS011;9791;50.820;4.406;2023-03-02T09:12:58;10.02;;;6.63;;
19312;SDS011;9791;50.820;4.406;2023-03-02T09:15:25;13.15;;;6.72;;
19312;SDS011;9791;50.820;4.406;2023-03-02T09:17:51;9.38;;;6.13;;
19312;SDS011;9791;50.820;4.406;2023-03-02T09:20:17;11.07;;;6.95;;
19312;SDS011;9791;50.820;4.406;2023-03-02T09:22:43;9.70;;;6.25;;
19312;SDS011;9791;50.820;4.406;2023-03-02T09:25:13;10.80;;;6.82;;
19312;SDS011;9791;50.820;4.406;2023-03-02T09:27:40;8.18;;;6.03;;
19312;SDS011;9791;50.820;4.406;2023-03-02T09:30:07;12.70;;;6.90;;
19312;SDS011;9791;50.820;4.406;2023-03-02T09:32:35;15.50;;;8.88;;
19312;SDS011;9791;50.820;4.406;2023-03-02T09:35:01;10.80;;;6.88;;
19312;SDS011;9791;50.820;4.406;2023-03-02T09:37:27;10.25;;;6.50;;
19312;SDS011;9791;50.820;4.406;2023-03-02T09:39:53;10.60;;;6.72;;
19312;SDS011;9791;50.820;4.406;2023-03-02T09:42:31;15.00;;;8.10;;
19312;SDS011;9791;50.820;4.406;2023-03-02T09:47:57;19.38;;;10.95;;
19312;SDS011;9791;50.820;4.406;2023-03-02T09:50:33;12.93;;;8.00;;
19312;SDS011;9791;50.820;4.406;2023-03-02T09:55:27;10.60;;;6.90;;
19312;SDS011;9791;50.820;4.406;2023-03-02T09:57:54;13.40;;;9.13;;
19312;SDS011;9791;50.820;4.406;2023-03-02T10:00:30;13.55;;;7.93;;
19312;SDS011;9791;50.820;4.406;2023-03-02T10:03:00;12.40;;;7.50;;
19312;SDS011;9791;50.820;4.406;2023-03-02T10:05:38;10.90;;;7.78;;
19312;SDS011;9791;50.820;4.406;2023-03-02T10:08:05;12.40;;;8.38;;
19312;SDS011;9791;50.820;4.406;2023-03-02T10:10:38;10.07;;;7.05;;
19312;SDS011;9791;50.820;4.406;2023-03-02T10:26:44;22.38;;;8.73;;
19312;SDS011;9791;50.820;4.406;2023-03-02T10:34:46;12.57;;;8.95;;
19312;SDS011;9791;50.820;4.406;2023-03-02T10:37:14;10.20;;;7.57;;
19312;SDS011;9791;50.820;4.406;2023-03-02T10:39:40;16.10;;;9.55;;
19312;SDS011;9791;50.820;4.406;2023-03-02T10:42:09;14.98;;;9.88;;
19312;SDS011;9791;50.820;4.406;2023-03-02T10:44:38;13.10;;;9.27;;
19312;SDS011;9791;50.820;4.406;2023-03-02T10:47:05;16.45;;;9.73;;
19312;SDS011;9791;50.820;4.406;2023-03-02T10:49:33;13.82;;;9.88;;
19312;SDS011;9791;50.820;4.406;2023-03-02T10:52:03;13.40;;;10.43;;
19312;SDS011;9791;50.820;4.406;2023-03-02T10:54:31;11.68;;;8.88;;
19312;SDS011;9791;50.820;4.406;2023-03-02T10:57:00;12.10;;;9.68;;
19312;SDS011;9791;50.820;4.406;2023-03-02T10:59:32;13.68;;;9.15;;
19312;SDS011;9791;50.820;4.406;2023-03-02T11:02:15;16.33;;;9.65;;
19312;SDS011;9791;50.820;4.406;2023-03-02T11:04:41;13.57;;;9.45;;
19312;SDS011;9791;50.820;4.406;2023-03-02T11:07:08;12.05;;;9.13;;
19312;SDS011;9791;50.820;4.406;2023-03-02T11:09:37;17.83;;;11.25;;
19312;SDS011;9791;50.820;4.406;2023-03-02T11:12:03;16.52;;;11.55;;
19312;SDS011;9791;50.820;4.406;2023-03-02T11:14:30;15.05;;;11.10;;
19312;SDS011;9791;50.820;4.406;2023-03-02T11:16:56;13.63;;;10.60;;
19312;SDS011;9791;50.820;4.406;2023-03-02T11:19:43;12.60;;;10.30;;
19312;SDS011;9791;50.820;4.406;2023-03-02T11:22:15;14.25;;;10.55;;
19312;SDS011;9791;50.820;4.406;2023-03-02T11:24:50;16.00;;;11.48;;
19312;SDS011;9791;50.820;4.406;2023-03-02T11:27:24;13.80;;;10.65;;
19312;SDS011;9791;50.820;4.406;2023-03-02T11:29:59;14.43;;;10.70;;
19312;SDS011;9791;50.820;4.406;2023-03-02T11:32:35;13.07;;;10.10;;
19312;SDS011;9791;50.820;4.406;2023-03-02T11:40:18;13.52;;;10.25;;
19312;SDS011;9791;50.820;4.406;2023-03-02T11:42:46;13.48;;;10.10;;
19312;SDS011;9791;50.820;4.406;2023-03-02T11:47:39;14.27;;;10.80;;
19312;SDS011;9791;50.820;4.406;2023-03-02T11:50:09;15.15;;;10.88;;
19312;SDS011;9791;50.820;4.406;2023-03-02T11:52:37;13.43;;;10.88;;
19312;SDS011;9791;50.820;4.406;2023-03-02T11:57:58;13.98;;;10.25;;
19312;SDS011;9791;50.820;4.406;2023-03-02T12:13:36;14.73;;;10.82;;
19312;SDS011;9791;50.820;4.406;2023-03-02T12:16:48;15.95;;;11.27;;
19312;SDS011;9791;50.820;4.406;2023-03-02T12:18:49;13.82;;;11.00;;
19312;SDS011;9791;50.820;4.406;2023-03-02T12:21:22;15.45;;;11.48;;
19312;SDS011;9791;50.820;4.406;2023-03-02T12:31:22;21.83;;;11.57;;
19312;SDS011;9791;50.820;4.406;2023-03-02T12:33:49;18.02;;;11.35;;
19312;SDS011;9791;50.820;4.406;2023-03-02T12:36:23;17.50;;;11.43;;
19312;SDS011;9791;50.820;4.406;2023-03-02T12:39:05;16.77;;;11.88;;
19312;SDS011;9791;50.820;4.406;2023-03-02T12:41:52;15.45;;;11.32;;
19312;SDS011;9791;50.820;4.406;2023-03-02T12:46:58;17.13;;;11.30;;
19312;SDS011;9791;50.820;4.406;2023-03-02T12:52:01;17.55;;;12.02;;
19312;SDS011;9791;50.820;4.406;2023-03-02T12:54:32;20.88;;;12.00;;
19312;SDS011;9791;50.820;4.406;2023-03-02T12:57:17;20.33;;;11.65;;
19312;SDS011;9791;50.820;4.406;2023-03-02T12:59:50;17.88;;;11.50;;
19312;SDS011;9791;50.820;4.406;2023-03-02T13:02:18;16.67;;;10.88;;
19312;SDS011;9791;50.820;4.406;2023-03-02T13:04:54;18.63;;;12.00;;
19312;SDS011;9791;50.820;4.406;2023-03-02T13:07:23;20.35;;;11.35;;
19312;SDS011;9791;50.820;4.406;2023-03-02T13:09:50;21.48;;;11.65;;
19312;SDS011;9791;50.820;4.406;2023-03-02T13:12:16;16.52;;;10.75;;
19312;SDS011;9791;50.820;4.406;2023-03-02T13:14:43;19.35;;;11.50;;
19312;SDS011;9791;50.820;4.406;2023-03-02T13:17:23;18.00;;;10.55;;
19312;SDS011;9791;50.820;4.406;2023-03-02T13:19:49;18.67;;;11.52;;
19312;SDS011;9791;50.820;4.406;2023-03-02T13:22:16;18.15;;;11.05;;
19312;SDS011;9791;50.820;4.406;2023-03-02T13:24:44;16.45;;;10.50;;
19312;SDS011;9791;50.820;4.406;2023-03-02T13:27:17;20.17;;;11.52;;
19312;SDS011;9791;50.820;4.406;2023-03-02T13:29:45;18.88;;;11.70;;
19312;SDS011;9791;50.820;4.406;2023-03-02T13:32:24;21.25;;;11.57;;
19312;SDS011;9791;50.820;4.406;2023-03-02T13:34:54;20.10;;;11.40;;
19312;SDS011;9791;50.820;4.406;2023-03-02T13:37:37;19.45;;;11.80;;
19312;SDS011;9791;50.820;4.406;2023-03-02T13:42:54;19.98;;;11.90;;
19312;SDS011;9791;50.820;4.406;2023-03-02T13:45:27;21.52;;;12.88;;
19312;SDS011;9791;50.820;4.406;2023-03-02T13:47:54;19.40;;;11.68;;
19312;SDS011;9791;50.820;4.406;2023-03-02T13:50:25;20.38;;;12.40;;
19312;SDS011;9791;50.820;4.406;2023-03-02T13:52:52;20.50;;;12.68;;
19312;SDS011;9791;50.820;4.406;2023-03-02T13:55:20;20.70;;;11.93;;
19312;SDS011;9791;50.820;4.406;2023-03-02T13:57:47;20.20;;;12.15;;
19312;SDS011;9791;50.820;4.406;2023-03-02T14:00:14;17.77;;;10.60;;
19312;SDS011;9791;50.820;4.406;2023-03-02T14:02:42;18.27;;;10.65;;
19312;SDS011;9791;50.820;4.406;2023-03-02T14:05:14;18.58;;;10.57;;
19312;SDS011;9791;50.820;4.406;2023-03-02T14:07:40;22.27;;;12.23;;
19312;SDS011;9791;50.820;4.406;2023-03-02T14:10:07;19.25;;;10.73;;
19312;SDS011;9791;50.820;4.406;2023-03-02T14:12:33;20.60;;;11.43;;
19312;SDS011;9791;50.820;4.406;2023-03-02T14:15:00;22.52;;;11.57;;
19312;SDS011;9791;50.820;4.406;2023-03-02T14:17:28;16.20;;;11.00;;
19312;SDS011;9791;50.820;4.406;2023-03-02T14:19:54;19.73;;;11.13;;
19312;SDS011;9791;50.820;4.406;2023-03-02T14:22:21;22.92;;;11.98;;
19312;SDS011;9791;50.820;4.406;2023-03-02T14:24:48;21.88;;;11.85;;
19312;SDS011;9791;50.820;4.406;2023-03-02T14:27:14;20.17;;;11.68;;
19312;SDS011;9791;50.820;4.406;2023-03-02T14:29:41;18.42;;;11.02;;
19312;SDS011;9791;50.820;4.406;2023-03-02T14:32:08;18.63;;;10.85;;
19312;SDS011;9791;50.820;4.406;2023-03-02T14:34:35;18.38;;;11.20;;
19312;SDS011;9791;50.820;4.406;2023-03-02T14:37:05;17.73;;;10.85;;
19312;SDS011;9791;50.820;4.406;2023-03-02T14:39:36;24.23;;;11.30;;
19312;SDS011;9791;50.820;4.406;2023-03-02T14:42:02;18.13;;;10.38;;
19312;SDS011;9791;50.820;4.406;2023-03-02T14:44:29;19.00;;;12.10;;
19312;SDS011;9791;50.820;4.406;2023-03-02T14:46:55;19.00;;;10.65;;
19312;SDS011;9791;50.820;4.406;2023-03-02T14:49:24;21.85;;;11.65;;
19312;SDS011;9791;50.820;4.406;2023-03-02T14:51:58;18.15;;;11.10;;
19312;SDS011;9791;50.820;4.406;2023-03-02T14:54:26;19.95;;;11.23;;
19312;SDS011;9791;50.820;4.406;2023-03-02T14:56:55;18.88;;;10.93;;
19312;SDS011;9791;50.820;4.406;2023-03-02T14:59:21;17.67;;;11.00;;
19312;SDS011;9791;50.820;4.406;2023-03-02T15:01:47;16.35;;;10.68;;
19312;SDS011;9791;50.820;4.406;2023-03-02T15:04:13;19.77;;;10.90;;
19312;SDS011;9791;50.820;4.406;2023-03-02T15:06:40;15.35;;;9.85;;
19312;SDS011;9791;50.820;4.406;2023-03-02T15:09:07;16.40;;;10.02;;
19312;SDS011;9791;50.820;4.406;2023-03-02T15:11:33;19.52;;;11.30;;
19312;SDS011;9791;50.820;4.406;2023-03-02T15:13:59;17.23;;;10.70;;
19312;SDS011;9791;50.820;4.406;2023-03-02T15:16:25;16.65;;;10.07;;
19312;SDS011;9791;50.820;4.406;2023-03-02T15:18:51;16.88;;;10.90;;
19312;SDS011;9791;50.820;4.406;2023-03-02T15:21:21;17.60;;;10.00;;
19312;SDS011;9791;50.820;4.406;2023-03-02T15:23:48;20.27;;;11.43;;
19312;SDS011;9791;50.820;4.406;2023-03-02T15:26:15;18.60;;;10.65;;
19312;SDS011;9791;50.820;4.406;2023-03-02T15:28:41;15.98;;;9.45;;
19312;SDS011;9791;50.820;4.406;2023-03-02T15:31:13;15.75;;;10.30;;
19312;SDS011;9791;50.820;4.406;2023-03-02T15:33:40;16.50;;;10.23;;
19312;SDS011;9791;50.820;4.406;2023-03-02T15:36:07;18.35;;;10.15;;
19312;SDS011;9791;50.820;4.406;2023-03-02T15:38:33;15.52;;;9.10;;
19312;SDS011;9791;50.820;4.406;2023-03-02T15:41:04;23.33;;;9.88;;
19312;SDS011;9791;50.820;4.406;2023-03-02T15:43:31;16.48;;;9.80;;
19312;SDS011;9791;50.820;4.406;2023-03-02T15:45:58;19.95;;;9.82;;
19312;SDS011;9791;50.820;4.406;2023-03-02T15:48:26;18.65;;;10.68;;
19312;SDS011;9791;50.820;4.406;2023-03-02T15:50:59;19.50;;;11.60;;
19312;SDS011;9791;50.820;4.406;2023-03-02T15:53:26;21.27;;;10.70;;
19312;SDS011;9791;50.820;4.406;2023-03-02T15:55:53;19.95;;;10.48;;
19312;SDS011;9791;50.820;4.406;2023-03-02T15:58:19;16.25;;;10.02;;
19312;SDS011;9791;50.820;4.406;2023-03-02T16:00:49;19.42;;;9.90;;